Eastlake, Colorado
Current Conditions -  °F | °C
As of 9:55 AM on Thursday 23 Oct 2014 (Local Time) from KEIK Reporting Station
Clear Clear  
Wind Chill: 57°   Ceiling: Unl
Heat Index: 57°   Visibility: 10mi
Dew Point: 41°   Wind: 0mph
Humidity: 54%   Direction: NA
Pressure: 30.17"   Gusts: NA
Location:  39.92°N, 104.96°W
Report Text: KEIK 231555Z AUTO 00000KT 10SM CLR 14/05 A3017 RMK AO2 T01390048
Loading
Personal Weather Stations






























Interactive Weather Map New forecast layout! Learn more

10-Day Weather Forecast

Advertisements
Track Severe Weather on mobile